Time;durP1;ratioP1;P1;durP2;ratioP2;P2;SDS_P1;SDS_P2;PMS_P1;PMS_P2;Temp;Humidity;BMP_temperature;BMP_pressure;BME280_temperature;BME280_humidity;BME280_pressure;Samples;Min_cycle;Max_cycle;Signal;HPM_P1;HPM_P2
2023/05/13 00:01:41;;;;;;;;;;;;;;;8.59;67.04;96202.59;6277472;28;20457;-75
2023/05/13 00:04:45;;;;;;;;;;;;;;;8.51;66.72;96189.16;6278120;28;19920;-74
2023/05/13 00:07:47;;;;;;;;;;;;;;;8.48;66.98;96192.00;6277890;28;20401;-74
2023/05/13 00:10:49;;;;;;;;;;;;;;;8.45;67.13;96185.16;6295814;28;19984;-74
2023/05/13 00:13:53;;;;;;;;;;;;;;;8.44;67.05;96183.50;6278045;28;19927;-74
2023/05/13 00:16:58;;;;;;;;;;;;;;;8.45;66.98;96179.94;6295513;28;20308;-74
2023/05/13 00:20:02;;;;;;;;;;;;;;;8.44;67.01;96177.44;6295430;28;19920;-74
2023/05/13 00:23:07;;;;;;;;;;;;;;;8.44;67.19;96172.19;6295277;28;20412;-74
2023/05/13 00:26:11;;;;;;;;;;;;;;;8.39;66.96;96176.88;6295457;28;20038;-75
2023/05/13 00:29:15;;;;;;;;;;;;;;;8.36;67.16;96170.03;6295124;28;19927;-74
2023/05/13 00:32:17;;;;;;;;;;;;;;;8.38;67.35;96168.16;6260143;28;20356;-75
2023/05/13 00:35:21;;;;;;;;;;;;;;;8.35;67.40;96168.38;6276850;28;20003;-75
2023/05/13 00:38:25;;;;;;;;;;;;;;;8.35;67.46;96165.75;6294856;28;19927;-74
2023/05/13 00:41:27;;;;;;;;;;;;;;;8.30;67.42;96167.84;6277249;28;19920;-74
2023/05/13 00:44:30;;;;;;;;;;;;;;;8.29;67.32;96163.50;6276724;28;19920;-73
2023/05/13 00:47:33;;;;;;;;;;;;;;;8.31;67.45;96166.88;6277358;28;19920;-75
2023/05/13 00:50:37;;;;;;;;;;;;;;;8.29;67.71;96164.38;6276664;28;19916;-74
2023/05/13 00:53:41;;;;;;;;;;;;;;;8.33;67.91;96160.59;6295039;28;20014;-74
2023/05/13 00:56:45;;;;;;;;;;;;;;;8.24;67.86;96155.16;6294694;28;20368;-74
2023/05/13 00:59:49;;;;;;;;;;;;;;;8.20;67.72;96164.13;6297456;28;20419;-74
2023/05/13 01:02:55;;;;;;;;;;;;;;;8.27;67.75;96161.00;6299943;28;19920;-75
2023/05/13 01:06:06;;;;;;;;;;;;;;;8.24;68.04;96157.75;6281243;28;19920;-74
2023/05/13 01:09:19;;;;;;;;;;;;;;;8.37;67.85;96161.22;6300066;28;20412;-74
2023/05/13 01:12:32;;;;;;;;;;;;;;;8.28;67.84;96161.84;6299665;28;20405;-75
2023/05/13 01:15:39;;;;;;;;;;;;;;;8.24;68.24;96165.63;6299417;28;19926;-75
2023/05/13 01:18:50;;;;;;;;;;;;;;;8.22;67.77;96162.25;6299595;28;20169;-74
2023/05/13 01:21:53;;;;;;;;;;;;;;;8.28;68.05;96159.22;6299486;28;19927;-75
2023/05/13 01:24:56;;;;;;;;;;;;;;;8.32;68.17;96163.31;6299214;28;19920;-75
2023/05/13 01:27:59;;;;;;;;;;;;;;;8.31;67.55;96166.88;6281318;28;20037;-75
2023/05/13 01:31:03;;;;;;;;;;;;;;;8.23;68.37;96163.94;6299176;28;19945;-76
2023/05/13 01:34:09;;;;;;;;;;;;;;;8.25;68.00;96167.28;6299309;28;20006;-75
2023/05/13 01:37:12;;;;;;;;;;;;;;;8.30;67.86;96165.22;6299014;28;20526;-75
2023/05/13 01:40:15;;;;;;;;;;;;;;;8.30;67.62;96166.03;6299016;28;19926;-74
2023/05/13 01:43:19;;;;;;;;;;;;;;;8.28;67.51;96167.91;6298911;28;20011;-75
2023/05/13 01:46:23;;;;;;;;;;;;;;;8.33;67.59;96171.06;6298987;28;19926;-75
2023/05/13 01:49:26;;;;;;;;;;;;;;;8.33;67.29;96175.50;6298606;28;19965;-74
2023/05/13 01:52:31;;;;;;;;;;;;;;;8.35;67.40;96180.59;6281069;28;19959;-75
2023/05/13 01:55:34;;;;;;;;;;;;;;;8.43;67.65;96179.19;6298276;28;20382;-75
2023/05/13 01:58:39;;;;;;;;;;;;;;;8.39;67.34;96177.72;6298611;28;19930;-75
2023/05/13 02:01:44;;;;;;;;;;;;;;;8.42;67.30;96180.13;6280066;28;19926;-75
2023/05/13 02:04:47;;;;;;;;;;;;;;;8.39;67.22;96180.34;6280350;28;20014;-75
2023/05/13 02:07:50;;;;;;;;;;;;;;;8.46;67.29;96180.75;6280996;28;20412;-76
2023/05/13 02:10:54;;;;;;;;;;;;;;;8.54;66.87;96179.31;6298361;28;20449;-74
2023/05/13 02:13:59;;;;;;;;;;;;;;;8.64;67.00;96183.94;6298026;28;19963;-75
2023/05/13 02:17:02;;;;;;;;;;;;;;;8.68;66.40;96180.16;6280153;28;19920;-75
2023/05/13 02:20:06;;;;;;;;;;;;;;;8.79;66.50;96180.25;6297992;28;19927;-76
2023/05/13 02:23:10;;;;;;;;;;;;;;;9.06;65.92;96187.16;6297784;28;19920;-75
2023/05/13 02:26:14;;;;;;;;;;;;;;;9.19;65.32;96180.94;6280426;28;19924;-74
2023/05/13 02:29:18;;;;;;;;;;;;;;;9.37;64.67;96184.06;6297667;28;19927;-75
2023/05/13 02:32:22;;;;;;;;;;;;;;;9.44;64.17;96185.28;6297976;28;19920;-74
2023/05/13 02:35:28;;;;;;;;;;;;;;;9.44;63.82;96185.28;6279802;28;19920;-74
2023/05/13 02:38:31;;;;;;;;;;;;;;;9.46;63.53;96184.38;6297738;28;20379;-75
2023/05/13 02:41:34;;;;;;;;;;;;;;;9.40;63.13;96189.09;6279877;28;19920;-74
2023/05/13 02:44:39;;;;;;;;;;;;;;;9.31;63.48;96184.47;6297579;28;20030;-75
2023/05/13 02:47:42;;;;;;;;;;;;;;;9.39;63.47;96182.16;6297199;28;19920;-74
2023/05/13 02:50:46;;;;;;;;;;;;;;;9.40;63.12;96183.84;6297141;28;20483;-75
2023/05/13 02:53:49;;;;;;;;;;;;;;;9.46;63.17;96179.94;6279598;28;20312;-75
2023/05/13 02:56:52;;;;;;;;;;;;;;;9.62;62.86;96188.41;6296987;28;20030;-74
2023/05/13 02:59:56;;;;;;;;;;;;;;;9.86;61.99;96175.28;6297201;28;19926;-75
2023/05/13 03:02:59;;;;;;;;;;;;;;;10.12;61.39;96181.22;6297142;28;20386;-75
2023/05/13 03:06:02;;;;;;;;;;;;;;;10.33;60.96;96183.25;6278529;28;19927;-76
2023/05/13 03:09:05;;;;;;;;;;;;;;;10.55;60.20;96171.94;6296976;28;19927;-75
2023/05/13 03:12:07;;;;;;;;;;;;;;;10.73;59.72;96181.09;6296724;28;20367;-75
2023/05/13 03:15:11;;;;;;;;;;;;;;;10.79;59.43;96185.88;6296487;28;19920;-75
2023/05/13 03:18:14;;;;;;;;;;;;;;;10.90;58.93;96177.16;6296547;28;20457;-75
2023/05/13 03:21:17;;;;;;;;;;;;;;;10.97;59.14;96182.78;6295983;28;19942;-73
2023/05/13 03:24:20;;;;;;;;;;;;;;;11.11;58.97;96182.53;6296445;28;19971;-75
2023/05/13 03:27:24;;;;;;;;;;;;;;;11.15;58.75;96191.91;6296385;28;19926;-75
2023/05/13 03:30:27;;;;;;;;;;;;;;;11.06;58.79;96187.31;6277797;28;19927;-75
2023/05/13 03:33:31;;;;;;;;;;;;;;;10.93;59.15;96191.88;6296240;28;19927;-74
2023/05/13 03:36:33;;;;;;;;;;;;;;;10.71;59.41;96193.50;6278423;28;19927;-74
2023/05/13 03:40:02;;;;;;;;;;;;;;;10.55;59.57;96198.25;6296034;28;20034;-75
2023/05/13 03:43:05;;;;;;;;;;;;;;;10.34;59.80;96195.47;6277979;28;19920;-74
2023/05/13 03:46:06;;;;;;;;;;;;;;;10.25;59.96;96202.22;6277953;28;20058;-75
2023/05/13 03:49:10;;;;;;;;;;;;;;;10.24;59.68;96200.50;6296009;28;20344;-76
2023/05/13 03:52:15;;;;;;;;;;;;;;;10.13;59.72;96203.09;6277547;28;19926;-74
2023/05/13 03:55:17;;;;;;;;;;;;;;;10.09;59.52;96202.50;6277983;28;19924;-74
2023/05/13 03:58:21;;;;;;;;;;;;;;;10.11;59.47;96205.03;6295276;28;19920;-75
2023/05/13 04:01:25;;;;;;;;;;;;;;;10.15;59.27;96211.72;6295488;28;19981;-77
2023/05/13 04:04:29;;;;;;;;;;;;;;;10.03;59.50;96212.63;6295573;28;20012;-75
2023/05/13 04:07:33;;;;;;;;;;;;;;;9.92;59.76;96215.19;6295361;28;19926;-76
2023/05/13 04:10:36;;;;;;;;;;;;;;;9.84;59.76;96213.94;6277675;28;20457;-75
2023/05/13 04:13:39;;;;;;;;;;;;;;;9.81;59.81;96214.19;6295528;28;20308;-76
2023/05/13 04:16:42;;;;;;;;;;;;;;;9.66;59.81;96204.78;6294973;28;20344;-75
2023/05/13 04:19:45;;;;;;;;;;;;;;;9.57;59.84;96211.53;6276567;28;20450;-75
2023/05/13 04:22:49;;;;;;;;;;;;;;;9.58;60.02;96212.38;6295166;28;19949;-75
2023/05/13 04:25:53;;;;;;;;;;;;;;;9.50;59.72;96205.03;6295171;28;19927;-75
2023/05/13 04:28:56;;;;;;;;;;;;;;;9.63;59.44;96212.88;6295133;28;19943;-74
2023/05/13 04:32:00;;;;;;;;;;;;;;;9.74;59.21;96212.97;6295145;28;19920;-75
2023/05/13 04:35:04;;;;;;;;;;;;;;;9.79;59.02;96208.19;6294307;28;19920;-76
2023/05/13 04:38:10;;;;;;;;;;;;;;;9.90;58.52;96213.50;6294990;28;19920;-75
2023/05/13 04:41:14;;;;;;;;;;;;;;;9.92;58.44;96215.19;6294917;28;19920;-75
2023/05/13 04:44:17;;;;;;;;;;;;;;;9.99;58.33;96216.41;6276935;28;19943;-74
2023/05/13 04:47:22;;;;;;;;;;;;;;;10.00;58.17;96212.84;6261285;28;20848;-76
2023/05/13 04:50:25;;;;;;;;;;;;;;;10.09;58.10;96213.00;6294814;28;20011;-74
2023/05/13 04:53:29;;;;;;;;;;;;;;;10.08;57.68;96215.75;6276965;28;20448;-74
2023/05/13 04:56:33;;;;;;;;;;;;;;;10.24;57.66;96220.72;6275942;28;20015;-76
2023/05/13 04:59:36;;;;;;;;;;;;;;;10.30;57.56;96221.16;6277032;28;19940;-74
2023/05/13 05:02:40;;;;;;;;;;;;;;;10.43;57.36;96214.97;6294499;28;19920;-75
2023/05/13 05:05:42;;;;;;;;;;;;;;;10.33;57.56;96218.28;6294710;28;19920;-76
2023/05/13 05:08:45;;;;;;;;;;;;;;;10.40;57.93;96215.19;6294348;28;19974;-75
2023/05/13 05:11:49;;;;;;;;;;;;;;;10.59;57.70;96217.25;6276916;28;19947;-77
2023/05/13 05:14:53;;;;;;;;;;;;;;;10.81;57.46;96214.69;6294507;28;20459;-74
2023/05/13 05:17:55;;;;;;;;;;;;;;;11.09;56.73;96204.69;6294281;28;20385;-77
2023/05/13 05:20:59;;;;;;;;;;;;;;;11.54;55.80;96213.41;6294599;28;19931;-76
2023/05/13 05:24:02;;;;;;;;;;;;;;;11.95;55.04;96216.38;6294454;28;19916;-76
2023/05/13 05:27:05;;;;;;;;;;;;;;;14.53;51.52;96217.09;6294634;28;19942;-76
2023/05/13 05:30:09;;;;;;;;;;;;;;;17.63;46.33;96229.41;6276569;28;19916;-75
2023/05/13 05:33:13;;;;;;;;;;;;;;;21.50;40.93;96223.81;6294376;28;20023;-75
2023/05/13 05:36:16;;;;;;;;;;;;;;;23.88;33.58;96226.50;6276402;28;19927;-75
2023/05/13 05:39:19;;;;;;;;;;;;;;;24.26;32.24;96226.03;6294485;28;19981;-73
2023/05/13 05:42:23;;;;;;;;;;;;;;;25.25;30.40;96230.84;6294193;28;19920;-75
2023/05/13 05:45:27;;;;;;;;;;;;;;;24.99;32.12;96231.63;6295815;28;19920;-75
2023/05/13 05:48:30;;;;;;;;;;;;;;;22.77;32.83;96229.72;6298867;28;20066;-75
2023/05/13 05:51:34;;;;;;;;;;;;;;;20.07;35.94;96226.19;6264550;28;19997;-74
2023/05/13 05:54:36;;;;;;;;;;;;;;;17.87;39.04;96226.06;6280889;28;20337;-74
2023/05/13 05:57:39;;;;;;;;;;;;;;;16.62;40.64;96223.75;6280375;28;20515;-75
2023/05/13 06:00:43;;;;;;;;;;;;;;;15.79;41.78;96225.69;6298005;28;20013;-75
2023/05/13 06:03:47;;;;;;;;;;;;;;;14.98;42.62;96226.25;6297796;28;19927;-75
2023/05/13 06:06:50;;;;;;;;;;;;;;;14.39;43.88;96230.69;6298192;28;19926;-75
2023/05/13 06:09:53;;;;;;;;;;;;;;;14.28;43.87;96233.47;6298432;28;19927;-75
2023/05/13 06:12:57;;;;;;;;;;;;;;;14.63;43.42;96234.75;6298066;28;19927;-75
2023/05/13 06:16:01;;;;;;;;;;;;;;;16.89;39.61;96240.59;6297890;28;19927;-75
2023/05/13 06:19:05;;;;;;;;;;;;;;;17.72;37.81;96239.13;6297871;28;20026;-75
2023/05/13 06:22:08;;;;;;;;;;;;;;;17.90;37.65;96241.72;6298146;28;20022;-75
2023/05/13 06:25:12;;;;;;;;;;;;;;;17.39;38.06;96232.78;6297771;28;19920;-75
2023/05/13 06:28:15;;;;;;;;;;;;;;;16.60;39.21;96237.16;6297452;28;19920;-75
2023/05/13 06:31:17;;;;;;;;;;;;;;;15.87;40.41;96239.06;6279159;28;19989;-76
2023/05/13 06:34:20;;;;;;;;;;;;;;;15.42;41.21;96245.06;6280176;28;20022;-75
2023/05/13 06:37:23;;;;;;;;;;;;;;;15.24;41.42;96242.34;6297776;28;19972;-76
2023/05/13 06:40:26;;;;;;;;;;;;;;;15.25;41.40;96250.13;6263389;28;19920;-76
2023/05/13 06:43:31;;;;;;;;;;;;;;;15.27;41.12;96248.19;6280217;28;20305;-75
2023/05/13 06:46:35;;;;;;;;;;;;;;;15.27;41.50;96242.88;6279829;28;20409;-75
2023/05/13 06:49:37;;;;;;;;;;;;;;;15.68;40.07;96240.84;6297537;28;19931;-76
2023/05/13 06:52:41;;;;;;;;;;;;;;;15.43;40.48;96252.06;6279051;28;19920;-75
2023/05/13 06:55:44;;;;;;;;;;;;;;;14.96;40.96;96252.03;6262796;28;19927;-76
2023/05/13 06:58:51;;;;;;;;;;;;;;;14.69;41.38;96253.59;6296310;28;19920;-76
2023/05/13 07:01:54;;;;;;;;;;;;;;;14.49;41.47;96254.50;6279027;28;19927;-75
2023/05/13 07:04:58;;;;;;;;;;;;;;;14.26;41.90;96265.34;6278703;28;19920;-76
2023/05/13 07:08:05;;;;;;;;;;;;;;;14.01;42.29;96261.44;6297008;28;19927;-76
2023/05/13 07:11:07;;;;;;;;;;;;;;;13.76;43.02;96265.41;6278729;28;19927;-75
2023/05/13 07:14:10;;;;;;;;;;;;;;;13.66;43.63;96262.69;6279253;28;19920;-75
2023/05/13 07:17:13;;;;;;;;;;;;;;;13.66;43.69;96269.81;6278541;28;20393;-75
2023/05/13 07:20:20;;;;;;;;;;;;;;;13.52;44.01;96278.09;6278386;28;19920;-76
2023/05/13 07:23:24;;;;;;;;;;;;;;;14.02;43.74;96273.69;6296411;28;20404;-75
2023/05/13 07:26:26;;;;;;;;;;;;;;;15.11;41.85;96285.03;6278614;28;19927;-75
2023/05/13 07:29:30;;;;;;;;;;;;;;;15.60;40.40;96291.06;6296455;28;19978;-75
2023/05/13 07:32:35;;;;;;;;;;;;;;;15.88;40.03;96283.16;6296402;28;20007;-76
2023/05/13 07:35:38;;;;;;;;;;;;;;;16.02;39.72;96279.19;6296267;28;19920;-75
2023/05/13 07:38:43;;;;;;;;;;;;;;;16.06;39.55;96278.75;6277819;28;20022;-76
2023/05/13 07:41:44;;;;;;;;;;;;;;;15.57;39.95;96280.75;6278399;28;20306;-75
2023/05/13 07:44:48;;;;;;;;;;;;;;;15.02;40.52;96291.19;6295895;28;19924;-75
2023/05/13 07:47:52;;;;;;;;;;;;;;;14.21;41.95;96301.13;6295871;28;20289;-75
2023/05/13 07:50:56;;;;;;;;;;;;;;;13.79;42.97;96304.78;6296174;28;20309;-76
2023/05/13 07:53:59;;;;;;;;;;;;;;;13.59;43.30;96301.22;6295525;28;19927;-75
2023/05/13 07:57:03;;;;;;;;;;;;;;;13.26;43.67;96302.28;6277420;28;20015;-76
2023/05/13 08:00:07;;;;;;;;;;;;;;;12.93;44.64;96304.13;6295749;28;19927;-76
2023/05/13 08:03:11;;;;;;;;;;;;;;;12.50;45.65;96307.66;6295608;28;20011;-76
2023/05/13 08:06:14;;;;;;;;;;;;;;;12.31;45.88;96313.63;6295480;28;20297;-76
2023/05/13 08:09:18;;;;;;;;;;;;;;;12.06;46.26;96325.28;6295432;28;20015;-75
2023/05/13 08:12:21;;;;;;;;;;;;;;;12.13;46.19;96321.19;6295327;28;19987;-76
2023/05/13 08:15:24;;;;;;;;;;;;;;;12.43;45.81;96327.63;6260282;28;20049;-76
2023/05/13 08:18:28;;;;;;;;;;;;;;;12.95;44.53;96328.59;6295265;28;20461;-75
2023/05/13 08:21:32;;;;;;;;;;;;;;;13.24;43.88;96333.25;6295426;28;20019;-76
2023/05/13 08:24:35;;;;;;;;;;;;;;;13.25;43.91;96334.94;6294902;28;20014;-76
2023/05/13 08:27:38;;;;;;;;;;;;;;;13.38;44.02;96340.88;6276705;28;19978;-75
2023/05/13 08:30:43;;;;;;;;;;;;;;;13.43;44.25;96341.34;6295239;28;20019;-76
2023/05/13 08:33:47;;;;;;;;;;;;;;;13.66;44.00;96338.53;6295112;28;20412;-75
2023/05/13 08:36:49;;;;;;;;;;;;;;;13.91;43.76;96345.19;6294391;28;19921;-76
2023/05/13 08:39:54;;;;;;;;;;;;;;;14.57;42.60;96344.72;6294514;28;20374;-76
2023/05/13 08:43:00;;;;;;;;;;;;;;;15.09;41.39;96352.41;6277506;28;20014;-76
2023/05/13 08:46:04;;;;;;;;;;;;;;;15.51;40.90;96355.56;6295034;28;19920;-75
2023/05/13 08:49:08;;;;;;;;;;;;;;;16.13;40.06;96354.13;6294653;28;19926;-75
2023/05/13 08:52:11;;;;;;;;;;;;;;;16.46;38.86;96354.53;6276649;28;19926;-76
2023/05/13 08:55:16;;;;;;;;;;;;;;;16.45;38.90;96358.19;6294421;28;19927;-75
2023/05/13 08:58:20;;;;;;;;;;;;;;;16.06;39.52;96363.69;6294526;28;20014;-75
2023/05/13 09:01:25;;;;;;;;;;;;;;;15.50;40.33;96375.94;6294946;28;20018;-76
2023/05/13 09:04:28;;;;;;;;;;;;;;;14.84;41.13;96375.84;6294502;28;19916;-75
2023/05/13 09:07:32;;;;;;;;;;;;;;;14.38;41.99;96371.97;6294635;28;19927;-76
2023/05/13 09:10:35;;;;;;;;;;;;;;;14.03;43.05;96372.38;6276441;28;19916;-76
2023/05/13 09:13:39;;;;;;;;;;;;;;;14.07;43.19;96373.81;6294273;28;19920;-75
2023/05/13 09:16:42;;;;;;;;;;;;;;;14.49;42.43;96371.84;6275754;28;20382;-75
2023/05/13 09:19:46;;;;;;;;;;;;;;;15.33;41.35;96378.47;6295182;28;20006;-76
2023/05/13 09:22:51;;;;;;;;;;;;;;;16.17;41.47;96374.09;6299494;28;20019;-75
2023/05/13 09:25:53;;;;;;;;;;;;;;;17.01;38.28;96364.25;6299302;28;20009;-75
2023/05/13 09:29:16;;;;;;;;;;;;;;;18.12;36.33;96377.94;6281403;28;19920;-75
2023/05/13 09:32:20;;;;;;;;;;;;;;;18.83;35.38;96372.22;6298830;28;19931;-74
2023/05/13 09:35:22;;;;;;;;;;;;;;;21.64;31.92;96380.13;6280872;28;19978;-75
2023/05/13 09:38:26;;;;;;;;;;;;;;;23.73;29.58;96394.00;6298888;28;19942;-75
2023/05/13 09:41:32;;;;;;;;;;;;;;;24.06;28.90;96396.13;6280457;28;19941;-74
2023/05/13 09:44:37;;;;;;;;;;;;;;;23.72;28.78;96397.72;6280609;28;19916;-75
2023/05/13 09:47:41;;;;;;;;;;;;;;;22.85;29.14;96392.41;6298713;28;19926;-75
2023/05/13 09:50:48;;;;;;;;;;;;;;;21.89;30.16;96397.63;6298635;28;19920;-76
2023/05/13 09:53:51;;;;;;;;;;;;;;;21.05;31.37;96402.94;6280506;28;19916;-75
2023/05/13 09:56:57;;;;;;;;;;;;;;;21.00;31.80;96393.75;6280572;28;19920;-75
2023/05/13 10:00:01;;;;;;;;;;;;;;;22.37;29.74;96398.19;6298283;28;19920;-75
2023/05/13 10:03:04;;;;;;;;;;;;;;;22.78;28.67;96404.91;6298146;28;19920;-74
2023/05/13 10:06:08;;;;;;;;;;;;;;;22.15;29.22;96409.78;6298183;28;19920;-74
2023/05/13 10:09:13;;;;;;;;;;;;;;;21.18;29.99;96406.88;6297867;28;19943;-75
2023/05/13 10:12:17;;;;;;;;;;;;;;;20.67;30.48;96403.81;6297960;28;20466;-74
2023/05/13 10:15:20;;;;;;;;;;;;;;;20.74;30.56;96410.94;6297832;28;20412;-74
2023/05/13 10:18:24;;;;;;;;;;;;;;;20.35;31.03;96405.53;6279258;28;19928;-75
2023/05/13 10:21:28;;;;;;;;;;;;;;;20.78;30.62;96414.13;6279172;28;19924;-75
2023/05/13 10:24:31;;;;;;;;;;;;;;;20.66;30.78;96407.47;6297849;28;20022;-75
2023/05/13 10:27:35;;;;;;;;;;;;;;;19.89;31.16;96416.84;6297597;28;20014;-75
2023/05/13 10:30:39;;;;;;;;;;;;;;;18.71;32.73;96420.63;6297074;28;20011;-75
2023/05/13 10:33:43;;;;;;;;;;;;;;;17.76;33.99;96412.59;6297146;28;19927;-75
2023/05/13 10:36:46;;;;;;;;;;;;;;;17.25;35.11;96411.53;6297575;28;19926;-75
2023/05/13 10:39:59;;;;;;;;;;;;;;;17.17;35.57;96411.44;6279852;28;19920;-75
2023/05/13 10:43:21;;;;;;;;;;;;;;;17.05;35.56;96416.16;6297728;28;20292;-75
2023/05/13 10:46:24;;;;;;;;;;;;;;;16.67;35.54;96425.16;6297461;28;20312;-75
2023/05/13 10:49:34;;;;;;;;;;;;;;;15.91;36.78;96420.84;6279720;28;20010;-74
2023/05/13 10:52:42;;;;;;;;;;;;;;;15.70;37.13;96421.84;6297239;28;20014;-74
2023/05/13 10:55:45;;;;;;;;;;;;;;;15.51;37.61;96427.16;6297120;28;20006;-74
2023/05/13 10:59:00;;;;;;;;;;;;;;;15.84;37.48;96430.34;6297109;28;20293;-75
2023/05/13 11:02:22;;;;;;;;;;;;;;;15.90;37.27;96427.13;6296953;28;20006;-76
2023/05/13 11:05:26;;;;;;;;;;;;;;;16.37;36.84;96427.13;6296880;28;19916;-74
2023/05/13 11:08:37;;;;;;;;;;;;;;;16.51;36.58;96433.78;6296756;28;19926;-75
2023/05/13 11:11:41;;;;;;;;;;;;;;;16.93;35.60;96434.13;6296647;28;19916;-74
2023/05/13 11:14:45;;;;;;;;;;;;;;;16.49;36.19;96431.25;6278640;28;19924;-74
2023/05/13 11:17:52;;;;;;;;;;;;;;;16.29;36.35;96429.66;6296130;28;19925;-75
2023/05/13 11:20:55;;;;;;;;;;;;;;;16.22;36.65;96436.53;6296872;28;19927;-75
2023/05/13 11:24:00;;;;;;;;;;;;;;;16.41;36.28;96439.13;6277964;28;20393;-74
2023/05/13 11:27:14;;;;;;;;;;;;;;;16.55;36.44;96435.97;6278237;28;19927;-74
2023/05/13 11:30:26;;;;;;;;;;;;;;;16.71;36.39;96438.00;6296332;28;19939;-74
2023/05/13 11:33:48;;;;;;;;;;;;;;;17.22;35.49;96441.06;6296338;28;19942;-74
2023/05/13 11:36:55;;;;;;;;;;;;;;;17.37;35.25;96450.19;6277788;28;20378;-75
2023/05/13 11:39:59;;;;;;;;;;;;;;;17.46;35.28;96443.94;6260954;28;20449;-74
2023/05/13 11:43:04;;;;;;;;;;;;;;;17.51;34.92;96449.66;6295312;28;20011;-75
2023/05/13 11:46:07;;;;;;;;;;;;;;;17.24;35.51;96455.06;6261440;28;20011;-75
2023/05/13 11:49:10;;;;;;;;;;;;;;;17.01;35.79;96455.50;6277945;28;19920;-75
2023/05/13 11:52:17;;;;;;;;;;;;;;;17.21;35.57;96464.16;6277894;28;20002;-75
2023/05/13 11:55:28;;;;;;;;;;;;;;;17.87;34.55;96459.47;6290310;28;19959;-73
2023/05/13 11:58:31;;;;;;;;;;;;;;;18.22;34.44;96458.50;6201594;28;20410;-74
2023/05/13 12:01:35;;;;;;;;;;;;;;;18.65;33.80;96464.72;6218344;28;19921;-74
2023/05/13 12:04:43;;;;;;;;;;;;;;;18.72;33.59;96460.44;6218278;28;20063;-75
2023/05/13 12:07:45;;;;;;;;;;;;;;;18.71;33.70;96463.25;6202365;28;19921;-75
2023/05/13 12:10:49;;;;;;;;;;;;;;;18.21;33.92;96470.16;6218208;28;19921;-74
2023/05/13 12:13:53;;;;;;;;;;;;;;;18.12;34.35;96469.28;6218109;28;20302;-75
2023/05/13 12:16:58;;;;;;;;;;;;;;;18.66;33.52;96476.25;6202401;28;20299;-75
2023/05/13 12:20:11;;;;;;;;;;;;;;;19.25;32.43;96470.00;6193755;28;20032;-74
2023/05/13 12:23:14;;;;;;;;;;;;;;;19.11;32.32;96470.63;6193981;28;20008;-75
2023/05/13 12:26:18;;;;;;;;;;;;;;;19.35;32.23;96471.66;6193957;28;19922;-74
2023/05/13 12:29:21;;;;;;;;;;;;;;;20.06;31.71;96478.25;6234910;28;20301;-75
2023/05/13 12:32:24;;;;;;;;;;;;;;;20.47;30.71;96467.50;6270207;28;20465;-75
2023/05/13 12:35:28;;;;;;;;;;;;;;;20.29;31.05;96476.53;6270133;28;19927;-75
2023/05/13 12:38:32;;;;;;;;;;;;;;;20.27;31.09;96486.56;6270010;28;19927;-74
2023/05/13 12:41:39;;;;;;;;;;;;;;;20.03;31.55;96482.09;6270012;28;19921;-75
2023/05/13 12:44:43;;;;;;;;;;;;;;;19.55;31.63;96488.22;6235797;28;20380;-75
2023/05/13 12:47:52;;;;;;;;;;;;;;;18.59;32.87;96476.03;6270038;28;19920;-75
2023/05/13 12:50:55;;;;;;;;;;;;;;;17.16;35.35;96470.94;6251764;28;19932;-75
2023/05/13 12:53:59;;;;;;;;;;;;;;;16.50;36.30;96486.06;6269166;28;20342;-75
2023/05/13 12:57:07;;;;;;;;;;;;;;;16.05;37.20;96476.13;6269670;28;19921;-74
2023/05/13 13:00:10;;;;;;;;;;;;;;;15.86;37.54;96490.25;6235579;28;19927;-75
2023/05/13 13:03:13;;;;;;;;;;;;;;;15.85;37.92;96493.03;6270107;28;20413;-76
2023/05/13 13:06:17;;;;;;;;;;;;;;;15.82;37.93;96494.16;6269702;28;19926;-74
2023/05/13 13:09:20;;;;;;;;;;;;;;;15.60;38.11;96497.94;6269868;28;20023;-75
2023/05/13 13:12:24;;;;;;;;;;;;;;;15.35;38.63;96496.66;6252137;28;19921;-75
2023/05/13 13:15:28;;;;;;;;;;;;;;;15.35;38.87;96501.13;6273158;28;20057;-75
2023/05/13 13:18:30;;;;;;;;;;;;;;;15.12;39.07;96497.91;6275967;28;19926;-74
2023/05/13 13:21:34;;;;;;;;;;;;;;;15.03;39.14;96504.81;6276749;28;20010;-75
2023/05/13 13:24:37;;;;;;;;;;;;;;;14.95;39.59;96502.88;6276374;28;20023;-75
2023/05/13 13:27:40;;;;;;;;;;;;;;;14.97;39.57;96505.38;6294391;28;20322;-74
2023/05/13 13:30:45;;;;;;;;;;;;;;;14.91;39.69;96508.56;6294206;28;19916;-75
2023/05/13 13:33:49;;;;;;;;;;;;;;;14.71;40.21;96511.16;6294121;28;20023;-75
2023/05/13 13:36:52;;;;;;;;;;;;;;;14.48;40.54;96504.34;6294586;28;20022;-75
2023/05/13 13:39:56;;;;;;;;;;;;;;;14.24;40.78;96516.06;6294111;28;19920;-76
2023/05/13 13:42:59;;;;;;;;;;;;;;;14.17;41.07;96512.25;6294180;28;19920;-75
2023/05/13 13:46:02;;;;;;;;;;;;;;;14.04;41.56;96506.31;6294103;28;20014;-75
2023/05/13 13:49:05;;;;;;;;;;;;;;;13.76;41.74;96506.03;6294086;28;19920;-75
2023/05/13 13:52:09;;;;;;;;;;;;;;;13.74;42.36;96507.94;6259775;28;19920;-75
2023/05/13 13:55:13;;;;;;;;;;;;;;;13.55;42.41;96510.44;6293928;28;20102;-76
2023/05/13 13:58:17;;;;;;;;;;;;;;;13.39;42.63;96510.84;6259481;28;19920;-74
2023/05/13 14:01:21;;;;;;;;;;;;;;;13.23;43.02;96524.44;6294018;28;19927;-75
2023/05/13 14:04:26;;;;;;;;;;;;;;;13.12;43.30;96516.56;6275682;28;19921;-74
2023/05/13 14:07:29;;;;;;;;;;;;;;;13.14;43.14;96522.56;6297571;28;20343;-75
2023/05/13 14:10:32;;;;;;;;;;;;;;;12.76;43.50;96529.09;6298187;28;20412;-76
2023/05/13 14:13:34;;;;;;;;;;;;;;;12.47;43.85;96536.66;6298062;28;19920;-75
2023/05/13 14:16:37;;;;;;;;;;;;;;;12.33;43.91;96532.44;6297904;28;19920;-75
2023/05/13 14:19:41;;;;;;;;;;;;;;;12.32;43.85;96530.78;6279688;28;19942;-75
2023/05/13 14:22:44;;;;;;;;;;;;;;;12.42;43.87;96537.00;6279923;28;19920;-76
2023/05/13 14:25:47;;;;;;;;;;;;;;;12.40;43.64;96538.94;6297802;28;20306;-74
2023/05/13 14:28:50;;;;;;;;;;;;;;;12.32;43.56;96541.34;6297750;28;20381;-75
2023/05/13 14:31:54;;;;;;;;;;;;;;;12.28;42.94;96539.88;6297549;28;19916;-75
2023/05/13 14:34:58;;;;;;;;;;;;;;;12.10;43.20;96548.25;6297501;28;19920;-76
2023/05/13 14:38:11;;;;;;;;;;;;;;;;;;;;;
2023/05/13 14:41:36;;;;;;;;;;;;;;;11.88;43.71;96542.91;6282485;28;19927;-75
2023/05/13 14:44:40;;;;;;;;;;;;;;;11.78;44.02;96547.19;6297407;28;19920;-76
2023/05/13 14:47:44;;;;;;;;;;;;;;;11.74;44.41;96550.97;6297486;28;19943;-75
2023/05/13 14:50:46;;;;;;;;;;;;;;;11.57;44.72;96552.22;6279454;28;20386;-76
2023/05/13 14:53:50;;;;;;;;;;;;;;;11.36;45.32;96557.28;6297144;28;19924;-75
2023/05/13 14:56:53;;;;;;;;;;;;;;;11.27;45.43;96558.81;6296488;28;19920;-75
2023/05/13 14:59:57;;;;;;;;;;;;;;;11.29;45.58;96558.69;6279247;28;19920;-76
2023/05/13 15:02:59;;;;;;;;;;;;;;;11.34;45.49;96569.72;6279036;28;19920;-75
2023/05/13 15:06:03;;;;;;;;;;;;;;;11.43;45.49;96567.25;6296589;28;20408;-74
2023/05/13 15:09:07;;;;;;;;;;;;;;;11.17;45.67;96558.63;6278425;28;20185;-75
2023/05/13 15:12:11;;;;;;;;;;;;;;;11.11;45.85;96564.34;6296751;28;20317;-75
2023/05/13 15:15:14;;;;;;;;;;;;;;;10.91;46.15;96562.28;6296480;28;19919;-75
2023/05/13 15:18:18;;;;;;;;;;;;;;;10.83;46.72;96557.56;6295694;28;20313;-75
2023/05/13 15:21:21;;;;;;;;;;;;;;;10.73;46.94;96567.91;6296790;28;20408;-77
2023/05/13 15:24:24;;;;;;;;;;;;;;;10.64;47.09;96563.25;6296461;28;20386;-75
2023/05/13 15:27:28;;;;;;;;;;;;;;;10.62;47.28;96562.56;6296372;28;20305;-75
2023/05/13 15:30:30;;;;;;;;;;;;;;;10.65;47.44;96567.59;6296296;28;20002;-75
2023/05/13 15:33:32;;;;;;;;;;;;;;;10.56;47.65;96573.50;6296307;28;20309;-74
2023/05/13 15:36:35;;;;;;;;;;;;;;;10.51;48.03;96575.63;6296031;28;19920;-76
2023/05/13 15:39:38;;;;;;;;;;;;;;;10.39;48.56;96577.31;6278194;28;19927;-75
2023/05/13 15:42:42;;;;;;;;;;;;;;;10.15;48.96;96587.66;6295841;28;20007;-76
2023/05/13 15:45:48;;;;;;;;;;;;;;;9.94;49.38;96587.34;6295772;28;20009;-76
2023/05/13 15:48:52;;;;;;;;;;;;;;;9.78;49.68;96579.63;6296003;28;20049;-75
2023/05/13 15:51:56;;;;;;;;;;;;;;;9.74;50.31;96586.03;6295834;28;19927;-75
2023/05/13 15:54:59;;;;;;;;;;;;;;;9.55;50.46;96583.75;6295804;28;20381;-76
2023/05/13 15:58:02;;;;;;;;;;;;;;;9.48;50.82;96584.25;6295266;28;19920;-75
2023/05/13 16:01:05;;;;;;;;;;;;;;;9.35;51.03;96590.31;6277169;28;19924;-76
2023/05/13 16:04:08;;;;;;;;;;;;;;;9.25;51.44;96588.38;6277916;28;20394;-76